Time;durP1;ratioP1;P1;durP2;ratioP2;P2;SDS_P1;SDS_P2;PMS_P1;PMS_P2;Temp;Humidity;BMP_temperature;BMP_pressure;BME280_temperature;BME280_humidity;BME280_pressure;Samples;Min_cycle;Max_cycle;Signal;HPM_P1;HPM_P2
2024/01/04 00:02:17;;;;;;;12.53;12.10;;;11.60;99.90;;;;;;5132584;27;20226;-63
2024/01/04 00:04:44;;;;;;;13.57;13.07;;;11.60;99.90;;;;;;5134535;27;20309;-62
2024/01/04 00:07:10;;;;;;;13.27;12.77;;;11.60;99.90;;;;;;5134160;27;20221;-63
2024/01/04 00:09:37;;;;;;;13.57;13.07;;;11.50;99.90;;;;;;5139442;27;20225;-62
2024/01/04 00:12:04;;;;;;;13.33;12.83;;;11.40;99.90;;;;;;5122635;27;20225;-64
2024/01/04 00:14:31;;;;;;;13.73;13.23;;;11.40;99.90;;;;;;5116888;27;20293;-61
2024/01/04 00:16:59;;;;;;;13.33;12.83;;;11.40;99.90;;;;;;5122415;27;20216;-61
2024/01/04 00:19:26;;;;;;;13.70;13.20;;;11.40;99.90;;;;;;5125363;27;20190;-62
2024/01/04 00:21:53;;;;;;;14.13;13.63;;;11.40;99.90;;;;;;5121377;27;20227;-62
2024/01/04 00:24:20;;;;;;;13.27;12.77;;;11.40;99.90;;;;;;5119157;27;20614;-62
2024/01/04 00:26:46;;;;;;;13.37;12.90;;;11.40;99.90;;;;;;5119375;27;20206;-63
2024/01/04 00:29:13;;;;;;;14.33;13.83;;;11.40;99.90;;;;;;5121007;27;20229;-64
2024/01/04 00:31:41;;;;;;;13.13;12.63;;;11.40;99.90;;;;;;5125908;27;20232;-61
2024/01/04 00:34:09;;;;;;;12.97;12.57;;;11.40;99.90;;;;;;5119262;27;20198;-63
2024/01/04 00:36:36;;;;;;;13.07;12.57;;;11.40;99.90;;;;;;5121188;27;20198;-64
2024/01/04 00:39:02;;;;;;;13.43;12.93;;;11.40;99.90;;;;;;5121853;27;20205;-62
2024/01/04 00:41:29;;;;;;;13.47;12.97;;;11.40;99.90;;;;;;5118731;27;20218;-64
2024/01/04 00:43:56;;;;;;;13.40;12.90;;;11.40;99.90;;;;;;5124593;27;20201;-62
2024/01/04 00:46:22;;;;;;;13.80;13.30;;;11.40;99.90;;;;;;5119837;27;20201;-63
2024/01/04 00:48:49;;;;;;;13.57;13.07;;;11.40;99.90;;;;;;5122405;27;20202;-64
2024/01/04 00:51:17;;;;;;;13.47;12.97;;;11.30;99.90;;;;;;5121810;27;20233;-61
2024/01/04 00:53:44;;;;;;;13.40;12.90;;;11.30;99.90;;;;;;5116082;27;20573;-61
2024/01/04 00:56:11;;;;;;;13.70;13.20;;;11.30;99.90;;;;;;5136600;27;20216;-61
2024/01/04 00:58:38;;;;;;;13.00;12.50;;;11.30;99.90;;;;;;5134744;27;20210;-62
2024/01/04 01:01:04;;;;;;;12.67;12.27;;;11.30;99.90;;;;;;5131110;27;20389;-63
2024/01/04 01:03:31;;;;;;;12.63;12.23;;;11.30;99.90;;;;;;5128845;27;20269;-63
2024/01/04 01:05:59;;;;;;;12.90;12.50;;;11.30;99.90;;;;;;5123528;27;21017;-62
2024/01/04 01:08:27;;;;;;;13.07;12.67;;;11.30;99.90;;;;;;5119769;27;20575;-64
2024/01/04 01:10:54;;;;;;;13.70;13.20;;;11.30;99.90;;;;;;5121133;27;20214;-64
2024/01/04 01:13:22;;;;;;;12.87;12.47;;;11.30;99.90;;;;;;5121019;27;20205;-65
2024/01/04 01:15:49;;;;;;;13.10;12.70;;;11.30;99.90;;;;;;5121419;27;20657;-63
2024/01/04 01:18:15;;;;;;;13.60;13.10;;;11.30;99.90;;;;;;5123109;27;20224;-63
2024/01/04 01:20:42;;;;;;;13.73;13.23;;;11.30;99.90;;;;;;5116162;27;20629;-65
2024/01/04 01:23:09;;;;;;;13.53;13.03;;;11.30;99.90;;;;;;5121159;27;20304;-63
2024/01/04 01:25:37;;;;;;;13.20;12.70;;;11.30;99.90;;;;;;5124310;27;20209;-63
2024/01/04 01:28:05;;;;;;;15.63;15.13;;;11.20;99.90;;;;;;5117127;27;20197;-62
2024/01/04 01:30:32;;;;;;;13.77;13.27;;;11.20;99.90;;;;;;5124852;27;20305;-62
2024/01/04 01:32:58;;;;;;;13.90;13.40;;;11.10;99.90;;;;;;5120692;27;20599;-64
2024/01/04 01:35:25;;;;;;;13.13;12.63;;;11.00;99.90;;;;;;5121178;27;20206;-64
2024/01/04 01:37:52;;;;;;;12.30;11.80;;;10.90;99.90;;;;;;5124977;27;20227;-63
2024/01/04 01:40:19;;;;;;;14.32;13.82;;;10.80;99.90;;;;;;5115870;27;20270;-64
2024/01/04 01:42:48;;;;;;;12.43;12.03;;;10.80;99.90;;;;;;5123091;27;20229;-63
2024/01/04 01:45:15;;;;;;;11.37;10.97;;;10.70;99.90;;;;;;5116862;27;20556;-64
2024/01/04 01:47:42;;;;;;;11.77;11.37;;;10.70;99.90;;;;;;5119302;27;20593;-63
2024/01/04 01:50:10;;;;;;;11.85;11.45;;;10.70;99.90;;;;;;5120525;27;20217;-64
2024/01/04 01:52:37;;;;;;;12.07;11.67;;;10.70;99.90;;;;;;5118733;27;20225;-63
2024/01/04 01:55:05;;;;;;;11.83;11.43;;;10.70;99.90;;;;;;5124276;27;20197;-62
2024/01/04 01:57:33;;;;;;;12.15;11.75;;;10.60;99.90;;;;;;5121585;27;20293;-64
2024/01/04 02:00:01;;;;;;;12.97;12.53;;;10.70;99.90;;;;;;5123924;27;20205;-65
2024/01/04 02:02:29;;;;;;;12.40;12.00;;;10.70;99.90;;;;;;5118733;27;20226;-64
2024/01/04 02:04:56;;;;;;;12.70;12.30;;;10.70;99.90;;;;;;5124703;27;20296;-63
2024/01/04 02:07:23;;;;;;;12.73;12.23;;;10.60;99.90;;;;;;5119208;27;20198;-63
2024/01/04 02:09:50;;;;;;;16.40;15.80;;;10.50;99.90;;;;;;5118097;27;20205;-64
2024/01/04 02:12:17;;;;;;;13.33;12.83;;;10.40;99.90;;;;;;5111032;27;20257;-63
2024/01/04 02:14:44;;;;;;;16.30;15.70;;;10.30;99.90;;;;;;5109886;28;20202;-63
2024/01/04 02:17:12;;;;;;;17.43;16.83;;;10.30;99.90;;;;;;5109356;28;20217;-64
2024/01/04 02:19:39;;;;;;;16.53;15.93;;;10.20;99.90;;;;;;5110096;28;20204;-63
2024/01/04 02:22:06;;;;;;;18.30;17.70;;;10.00;99.90;;;;;;5110344;28;20218;-65
2024/01/04 02:24:34;;;;;;;17.02;16.42;;;9.80;99.90;;;;;;5110852;28;20213;-62
2024/01/04 02:27:01;;;;;;;19.20;18.50;;;9.70;99.90;;;;;;5110339;28;20206;-64
2024/01/04 02:29:27;;;;;;;18.07;17.37;;;9.70;99.90;;;;;;5111220;28;20229;-65
2024/01/04 02:31:54;;;;;;;17.00;16.40;;;9.60;99.90;;;;;;5108719;28;20262;-65
2024/01/04 02:34:21;;;;;;;15.47;14.87;;;9.60;99.90;;;;;;5110125;28;20202;-64
2024/01/04 02:36:47;;;;;;;16.73;16.13;;;9.70;99.90;;;;;;5109926;28;20205;-64
2024/01/04 02:39:14;;;;;;;15.60;15.00;;;9.70;99.90;;;;;;5110803;28;20225;-65
2024/01/04 02:41:42;;;;;;;15.60;15.00;;;9.80;99.90;;;;;;5114724;28;20218;-67
2024/01/04 02:44:09;;;;;;;15.57;15.07;;;9.90;99.90;;;;;;5112461;28;20205;-65
2024/01/04 02:46:35;;;;;;;15.10;14.50;;;9.90;99.90;;;;;;5110051;28;20201;-63
2024/01/04 02:49:02;;;;;;;13.60;13.10;;;10.00;99.90;;;;;;5111335;28;20240;-65
2024/01/04 02:51:29;;;;;;;13.37;12.87;;;10.00;99.90;;;;;;5113662;28;20236;-65
2024/01/04 02:53:56;;;;;;;18.60;17.90;;;10.00;99.90;;;;;;5115122;28;20202;-62
2024/01/04 02:56:22;;;;;;;14.83;14.33;;;10.00;99.90;;;;;;5114343;28;20202;-63
2024/01/04 02:58:50;;;;;;;12.80;12.40;;;10.00;99.90;;;;;;5114607;27;20209;-63
2024/01/04 03:01:20;;;;;;;12.07;11.67;;;10.00;99.90;;;;;;5113925;27;20701;-65
2024/01/04 03:03:48;;;;;;;10.97;10.57;;;10.10;99.90;;;;;;5114401;27;20198;-64
2024/01/04 03:06:15;;;;;;;12.25;11.85;;;10.10;99.90;;;;;;5114023;28;20202;-64
2024/01/04 03:08:41;;;;;;;10.80;10.40;;;10.20;99.90;;;;;;5113782;28;20217;-64
2024/01/04 03:11:08;;;;;;;11.03;10.63;;;10.20;99.90;;;;;;5114223;28;20229;-64
2024/01/04 03:13:35;;;;;;;11.00;10.60;;;10.30;99.90;;;;;;5114460;28;20213;-64
2024/01/04 03:16:02;;;;;;;10.67;10.27;;;10.30;99.90;;;;;;5113422;28;20201;-66
2024/01/04 03:18:29;;;;;;;11.53;11.13;;;10.30;99.90;;;;;;5113549;28;20206;-64
2024/01/04 03:20:56;;;;;;;11.20;10.80;;;10.30;99.90;;;;;;5111085;28;20198;-65
2024/01/04 03:23:22;;;;;;;11.40;11.00;;;10.30;99.90;;;;;;5114528;28;20202;-63
2024/01/04 03:25:49;;;;;;;11.67;11.27;;;10.30;99.90;;;;;;5114645;28;20212;-65
2024/01/04 03:28:17;;;;;;;10.87;10.47;;;10.40;99.90;;;;;;5115263;28;20202;-62
2024/01/04 03:30:43;;;;;;;11.30;10.90;;;10.30;99.90;;;;;;5113265;28;20233;-65
2024/01/04 03:33:12;;;;;;;10.87;10.47;;;10.30;99.90;;;;;;5113282;28;20684;-63
2024/01/04 03:35:38;;;;;;;11.07;10.67;;;10.40;99.90;;;;;;5112993;28;20198;-63
2024/01/04 03:38:05;;;;;;;10.90;10.50;;;10.30;99.90;;;;;;5113390;28;20218;-63
2024/01/04 03:40:32;;;;;;;11.17;10.77;;;10.40;99.90;;;;;;5113123;28;20679;-64
2024/01/04 03:42:58;;;;;;;11.20;10.80;;;10.40;99.90;;;;;;5112964;28;20225;-65
2024/01/04 03:45:25;;;;;;;11.00;10.60;;;10.40;99.90;;;;;;5112340;28;20852;-64
2024/01/04 03:47:52;;;;;;;10.97;10.57;;;10.40;99.90;;;;;;5112327;28;20210;-64
2024/01/04 03:50:20;;;;;;;11.13;10.73;;;10.40;99.90;;;;;;5112755;28;20209;-65
2024/01/04 03:52:47;;;;;;;11.73;11.33;;;10.40;99.90;;;;;;5113293;28;20225;-64
2024/01/04 03:55:15;;;;;;;10.95;10.55;;;10.40;99.90;;;;;;5113199;28;20205;-65
2024/01/04 03:57:43;;;;;;;11.07;10.67;;;10.50;99.90;;;;;;5109580;28;20214;-64
2024/01/04 04:00:11;;;;;;;10.87;10.47;;;10.50;99.90;;;;;;5112537;28;20202;-64
2024/01/04 04:02:38;;;;;;;11.00;10.60;;;10.50;99.90;;;;;;5113527;28;20610;-63
2024/01/04 04:05:05;;;;;;;11.47;11.07;;;10.50;99.90;;;;;;5115146;28;20645;-65
2024/01/04 04:07:34;;;;;;;10.93;10.53;;;10.50;99.90;;;;;;5115266;28;20213;-66
2024/01/04 04:10:01;;;;;;;11.50;11.10;;;10.50;99.90;;;;;;5112896;28;20206;-63
2024/01/04 04:12:28;;;;;;;11.17;10.77;;;10.50;99.90;;;;;;5113462;28;20229;-66
2024/01/04 04:14:55;;;;;;;11.70;11.30;;;10.50;99.90;;;;;;5112157;28;20198;-65
2024/01/04 04:17:24;;;;;;;11.10;10.70;;;10.50;99.90;;;;;;5112337;28;20229;-64
2024/01/04 04:19:51;;;;;;;10.50;10.20;;;10.40;99.90;;;;;;5127608;27;20201;-64
2024/01/04 04:22:17;;;;;;;10.87;10.47;;;10.40;99.90;;;;;;5124028;27;20213;-64
2024/01/04 04:24:45;;;;;;;11.43;11.03;;;10.40;99.90;;;;;;5122824;27;20212;-64
2024/01/04 04:27:12;;;;;;;11.20;10.80;;;10.40;99.90;;;;;;5127730;27;20224;-64
2024/01/04 04:29:40;;;;;;;11.37;10.97;;;10.40;99.90;;;;;;5126480;27;20209;-63
2024/01/04 04:32:08;;;;;;;11.13;10.73;;;10.40;99.90;;;;;;5122644;27;20253;-64
2024/01/04 04:34:34;;;;;;;11.97;11.50;;;10.40;99.90;;;;;;5124224;27;20225;-65
2024/01/04 04:37:01;;;;;;;11.60;11.20;;;10.30;99.90;;;;;;5123905;27;20209;-63
2024/01/04 04:39:28;;;;;;;11.45;11.05;;;10.30;99.90;;;;;;5123161;27;20205;-64
2024/01/04 04:41:56;;;;;;;11.77;11.37;;;10.30;99.90;;;;;;5123397;27;20221;-64
2024/01/04 04:44:23;;;;;;;10.90;10.50;;;10.40;99.90;;;;;;5125844;27;20208;-63
2024/01/04 04:46:49;;;;;;;11.27;10.87;;;10.30;99.90;;;;;;5127465;27;20577;-64
2024/01/04 04:49:16;;;;;;;10.93;10.53;;;10.40;99.90;;;;;;5124041;27;20202;-63
2024/01/04 04:51:44;;;;;;;11.20;10.80;;;10.40;99.90;;;;;;5121528;27;20231;-63
2024/01/04 04:54:11;;;;;;;11.47;11.07;;;10.40;99.90;;;;;;5128163;27;20205;-64
2024/01/04 04:56:38;;;;;;;11.00;10.60;;;10.40;99.90;;;;;;5125200;27;20584;-62
2024/01/04 04:59:06;;;;;;;11.57;11.17;;;10.40;99.90;;;;;;5127116;27;20204;-63
2024/01/04 05:01:32;;;;;;;11.23;10.83;;;10.50;99.90;;;;;;5120196;27;20809;-65
2024/01/04 05:03:59;;;;;;;10.85;10.45;;;10.50;99.90;;;;;;5127431;27;20295;-63
2024/01/04 05:06:26;;;;;;;10.73;10.33;;;10.50;99.90;;;;;;5121782;27;20832;-63
2024/01/04 05:08:53;;;;;;;11.30;10.90;;;10.50;99.90;;;;;;5125991;27;20208;-65
2024/01/04 05:11:20;;;;;;;11.20;10.80;;;10.50;99.90;;;;;;5123275;27;20232;-65
2024/01/04 05:13:47;;;;;;;11.70;11.30;;;10.50;99.90;;;;;;5125305;27;20201;-65
2024/01/04 05:16:15;;;;;;;11.70;11.20;;;10.50;99.90;;;;;;5121635;27;20205;-64
2024/01/04 05:18:41;;;;;;;11.40;11.00;;;10.50;99.90;;;;;;5133266;27;20220;-63
2024/01/04 05:21:08;;;;;;;10.80;10.40;;;10.50;99.90;;;;;;5138353;27;20204;-65
2024/01/04 05:23:35;;;;;;;11.80;11.40;;;10.50;99.90;;;;;;5131421;27;20209;-63
2024/01/04 05:26:02;;;;;;;11.27;10.87;;;10.60;99.90;;;;;;5135588;27;20205;-63
2024/01/04 05:28:29;;;;;;;11.53;11.13;;;10.60;99.90;;;;;;5131749;27;20231;-63
2024/01/04 05:30:55;;;;;;;12.20;11.70;;;10.60;99.90;;;;;;5134594;27;20207;-64
2024/01/04 05:33:23;;;;;;;10.43;10.03;;;10.60;99.90;;;;;;5124400;27;20205;-64
2024/01/04 05:35:51;;;;;;;11.53;11.03;;;10.60;99.90;;;;;;5122954;27;20201;-64
2024/01/04 05:38:17;;;;;;;10.83;10.43;;;10.60;99.90;;;;;;5125677;27;20231;-64
2024/01/04 05:40:44;;;;;;;11.33;10.90;;;10.60;99.90;;;;;;5127520;27;20205;-64
2024/01/04 05:43:11;;;;;;;11.50;11.10;;;10.70;99.90;;;;;;5123249;27;20231;-64
2024/01/04 05:45:38;;;;;;;11.05;10.65;;;10.60;99.90;;;;;;5124363;27;20209;-65
2024/01/04 05:48:05;;;;;;;11.37;10.97;;;10.70;99.90;;;;;;5122657;27;20197;-66
2024/01/04 05:50:33;;;;;;;11.07;10.67;;;10.60;99.90;;;;;;5121487;27;20201;-65
2024/01/04 05:52:59;;;;;;;11.60;11.20;;;10.60;99.90;;;;;;5123989;27;20217;-65
2024/01/04 05:55:27;;;;;;;11.30;10.90;;;10.60;99.90;;;;;;5125104;27;20686;-65
2024/01/04 05:57:53;;;;;;;11.80;11.40;;;10.60;99.90;;;;;;5121013;27;20542;-63
2024/01/04 06:00:20;;;;;;;11.60;11.10;;;10.60;99.90;;;;;;5128017;27;20232;-67
2024/01/04 06:02:47;;;;;;;12.03;11.63;;;10.60;99.90;;;;;;5127278;27;20217;-65
2024/01/04 06:05:14;;;;;;;11.57;11.18;;;10.50;99.90;;;;;;5125748;27;20676;-63
2024/01/04 06:07:42;;;;;;;11.13;10.73;;;10.60;99.90;;;;;;5126626;27;20205;-64
2024/01/04 06:10:09;;;;;;;11.13;10.73;;;10.60;99.90;;;;;;5119463;27;20268;-63
2024/01/04 06:12:36;;;;;;;11.43;11.03;;;10.60;99.90;;;;;;5124494;27;20222;-64
2024/01/04 06:15:04;;;;;;;11.37;10.97;;;10.60;99.90;;;;;;5121164;27;20205;-64
2024/01/04 06:17:30;;;;;;;11.43;10.97;;;10.60;99.90;;;;;;5128169;27;20355;-64
2024/01/04 06:19:57;;;;;;;11.73;11.33;;;10.60;99.90;;;;;;5125989;27;20655;-65
2024/01/04 06:22:24;;;;;;;11.37;10.97;;;10.60;99.90;;;;;;5119838;27;20225;-62
2024/01/04 06:24:52;;;;;;;11.87;11.37;;;10.50;99.90;;;;;;5115518;27;20202;-65
2024/01/04 06:27:19;;;;;;;10.90;10.50;;;10.60;99.90;;;;;;5119508;27;20202;-64
2024/01/04 06:29:45;;;;;;;10.90;10.50;;;10.50;99.90;;;;;;5120626;28;20212;-64
2024/01/04 06:32:12;;;;;;;11.00;10.60;;;10.50;99.90;;;;;;5118761;28;20224;-64
2024/01/04 06:34:39;;;;;;;11.70;11.30;;;10.50;99.90;;;;;;5128659;28;20212;-63
2024/01/04 06:37:05;;;;;;;10.73;10.33;;;10.50;99.90;;;;;;5125466;27;20220;-65
2024/01/04 06:39:32;;;;;;;10.83;10.43;;;10.50;99.90;;;;;;5123767;27;20241;-65
2024/01/04 06:42:04;;;;;;;11.43;11.03;;;10.50;99.90;;;;;;5119418;28;20710;-66
2024/01/04 06:44:31;;;;;;;10.88;10.48;;;10.50;99.90;;;;;;5120475;28;20296;-63
2024/01/04 06:46:59;;;;;;;11.03;10.63;;;10.50;99.90;;;;;;5121109;27;20718;-64
2024/01/04 06:49:26;;;;;;;11.63;11.23;;;10.50;99.90;;;;;;5124888;27;20209;-65
2024/01/04 06:51:52;;;;;;;11.17;10.77;;;10.50;99.90;;;;;;5130933;28;20451;-63
2024/01/04 06:54:19;;;;;;;11.30;10.90;;;10.50;99.90;;;;;;5124757;27;20243;-65
2024/01/04 06:56:46;;;;;;;11.93;11.53;;;10.60;99.90;;;;;;5124194;27;20202;-64
2024/01/04 06:59:15;;;;;;;11.17;10.77;;;10.50;99.90;;;;;;5125057;27;20209;-65
2024/01/04 07:01:41;;;;;;;11.43;11.03;;;10.60;99.90;;;;;;5121644;28;20221;-63
2024/01/04 07:04:08;;;;;;;11.20;10.80;;;10.60;99.90;;;;;;5115548;28;20197;-64
2024/01/04 07:06:35;;;;;;;11.77;11.37;;;10.60;99.90;;;;;;5120570;27;20289;-63
2024/01/04 07:09:02;;;;;;;12.23;11.80;;;10.60;99.90;;;;;;5133950;28;20255;-64
2024/01/04 07:11:30;;;;;;;11.57;11.17;;;10.60;99.90;;;;;;5126101;27;20236;-63
2024/01/04 07:13:57;;;;;;;11.57;11.17;;;10.50;99.90;;;;;;5126570;27;20201;-63
2024/01/04 07:16:26;;;;;;;11.23;10.83;;;10.50;99.90;;;;;;5126312;27;20205;-64
2024/01/04 07:18:53;;;;;;;12.10;11.60;;;10.50;99.90;;;;;;5119448;27;20621;-63
2024/01/04 07:21:20;;;;;;;11.03;10.63;;;10.50;99.90;;;;;;5120924;27;20229;-64
2024/01/04 07:23:46;;;;;;;11.43;11.03;;;10.50;99.90;;;;;;5121657;27;20200;-64
2024/01/04 07:26:14;;;;;;;10.90;10.50;;;10.50;99.90;;;;;;5121202;28;20475;-63
2024/01/04 07:28:41;;;;;;;11.17;10.77;;;10.50;99.90;;;;;;5118867;27;20209;-63
2024/01/04 07:31:09;;;;;;;11.40;11.00;;;10.50;99.90;;;;;;5117878;28;20205;-64
2024/01/04 07:33:38;;;;;;;11.27;10.87;;;10.50;99.90;;;;;;5118001;27;20229;-64
2024/01/04 07:36:05;;;;;;;11.23;10.83;;;10.50;99.90;;;;;;5127443;27;20199;-65
2024/01/04 07:38:34;;;;;;;11.38;10.98;;;10.50;99.90;;;;;;5125491;27;20229;-64
2024/01/04 07:41:02;;;;;;;11.43;11.03;;;10.50;99.90;;;;;;5124288;27;20572;-64
2024/01/04 07:43:29;;;;;;;12.33;11.83;;;10.50;99.90;;;;;;5125711;27;20194;-64
2024/01/04 07:45:56;;;;;;;12.00;11.60;;;10.60;99.90;;;;;;5123339;27;20199;-65
2024/01/04 07:48:23;;;;;;;12.13;11.63;;;10.60;99.90;;;;;;5121091;27;20230;-64
2024/01/04 07:50:51;;;;;;;12.43;11.93;;;10.60;99.90;;;;;;5129016;27;20266;-64
2024/01/04 07:53:17;;;;;;;11.93;11.53;;;10.60;99.90;;;;;;5124745;27;20220;-65
2024/01/04 07:55:44;;;;;;;11.48;11.07;;;10.50;99.90;;;;;;5118888;27;20216;-64
2024/01/04 07:58:11;;;;;;;11.97;11.47;;;10.50;99.90;;;;;;5123928;27;20577;-64
2024/01/04 08:00:37;;;;;;;11.67;11.27;;;10.40;99.90;;;;;;5125431;27;20220;-64
2024/01/04 08:03:04;;;;;;;11.80;11.40;;;10.30;99.90;;;;;;5116121;27;20220;-65
2024/01/04 08:05:31;;;;;;;12.50;12.00;;;10.20;99.90;;;;;;5123112;27;20201;-64
2024/01/04 08:07:59;;;;;;;13.73;13.13;;;10.10;99.90;;;;;;5119687;27;20584;-64
2024/01/04 08:10:26;;;;;;;15.47;14.87;;;10.00;99.90;;;;;;5126457;27;20201;-65
2024/01/04 08:12:53;;;;;;;15.80;15.20;;;9.70;99.90;;;;;;5126295;27;20569;-66
2024/01/04 08:15:20;;;;;;;14.43;13.93;;;9.70;99.90;;;;;;5121570;27;20202;-63
2024/01/04 08:17:47;;;;;;;15.07;14.47;;;9.60;99.90;;;;;;5129594;27;20216;-65
2024/01/04 08:20:14;;;;;;;11.90;11.50;;;9.70;99.90;;;;;;5119027;27;20206;-65
2024/01/04 08:22:41;;;;;;;12.30;11.90;;;9.80;99.90;;;;;;5115849;27;20278;-63
2024/01/04 08:25:10;;;;;;;12.60;12.20;;;9.80;99.90;;;;;;5114920;27;20566;-63
2024/01/04 08:27:37;;;;;;;12.40;11.90;;;9.80;99.90;;;;;;5125082;27;20206;-64
2024/01/04 08:30:04;;;;;;;11.93;11.50;;;9.90;99.90;;;;;;5129716;27;20205;-65
2024/01/04 08:32:30;;;;;;;12.67;12.20;;;9.90;99.90;;;;;;5121898;27;20236;-63
2024/01/04 08:34:57;;;;;;;12.90;12.40;;;10.00;99.90;;;;;;5130728;27;20205;-66
2024/01/04 08:37:24;;;;;;;12.40;12.00;;;10.00;99.90;;;;;;5121994;27;20289;-64
2024/01/04 08:39:51;;;;;;;11.67;11.27;;;10.00;99.90;;;;;;5129291;27;20197;-64
2024/01/04 08:42:19;;;;;;;11.80;11.40;;;10.00;99.90;;;;;;5128957;27;20237;-65
2024/01/04 08:44:46;;;;;;;12.13;11.73;;;10.10;99.90;;;;;;5123178;27;20220;-65
2024/01/04 08:47:13;;;;;;;12.20;11.70;;;10.10;99.90;;;;;;5128812;27;20201;-65
2024/01/04 08:49:40;;;;;;;11.27;10.87;;;10.10;99.90;;;;;;5124873;27;20203;-65
2024/01/04 08:52:07;;;;;;;11.30;10.90;;;10.20;99.90;;;;;;5125092;27;20281;-64
2024/01/04 08:54:34;;;;;;;12.13;11.73;;;10.20;99.90;;;;;;5127552;27;20205;-64
2024/01/04 08:57:01;;;;;;;11.60;11.20;;;10.20;99.90;;;;;;5124786;27;20205;-64
2024/01/04 08:59:29;;;;;;;11.93;11.53;;;10.10;99.90;;;;;;5115795;28;20206;-63
2024/01/04 09:01:56;;;;;;;11.93;11.43;;;10.10;99.90;;;;;;5118987;28;20313;-65
2024/01/04 09:04:22;;;;;;;11.77;11.37;;;10.10;99.90;;;;;;5119154;28;20202;-63
2024/01/04 09:06:49;;;;;;;11.90;11.50;;;10.20;99.90;;;;;;5131116;27;20194;-65
2024/01/04 09:09:16;;;;;;;11.45;11.05;;;10.20;99.90;;;;;;5125432;27;20690;-63
2024/01/04 09:11:48;;;;;;;11.30;10.90;;;10.30;99.90;;;;;;5124446;27;20313;-63
2024/01/04 09:14:15;;;;;;;11.40;11.00;;;10.40;99.90;;;;;;5122213;27;20278;-66
2024/01/04 09:16:44;;;;;;;11.93;11.53;;;10.50;99.90;;;;;;5117852;27;20230;-65
2024/01/04 09:19:14;;;;;;;12.10;11.65;;;10.70;99.90;;;;;;5116796;27;20197;-65
2024/01/04 09:21:41;;;;;;;12.07;11.60;;;10.80;99.90;;;;;;5114286;27;20928;-65
2024/01/04 09:24:08;;;;;;;14.50;13.93;;;10.90;99.90;;;;;;5123079;27;20564;-65
2024/01/04 09:26:38;;;;;;;14.53;14.03;;;11.10;99.90;;;;;;5122228;27;20220;-64
2024/01/04 09:29:05;;;;;;;13.17;12.67;;;11.20;99.90;;;;;;5120824;27;20200;-64
2024/01/04 09:31:32;;;;;;;14.73;14.23;;;11.40;99.90;;;;;;5118160;27;20217;-65
2024/01/04 09:34:00;;;;;;;15.27;14.67;;;11.40;99.90;;;;;;5113902;27;20269;-65
2024/01/04 09:36:27;;;;;;;15.13;14.53;;;11.40;99.90;;;;;;5123559;27;20201;-63
2024/01/04 09:38:55;;;;;;;14.13;13.63;;;11.50;99.90;;;;;;5121072;27;20210;-62
2024/01/04 09:41:26;;;;;;;12.83;12.43;;;11.50;99.90;;;;;;5117825;27;20780;-63
2024/01/04 09:43:55;;;;;;;13.30;12.80;;;11.70;99.90;;;;;;5123366;27;20209;-63
2024/01/04 09:46:25;;;;;;;12.83;12.33;;;11.90;99.90;;;;;;5120478;27;20206;-63
2024/01/04 09:48:56;;;;;;;11.50;11.10;;;12.00;99.90;;;;;;5122854;27;20198;-62
2024/01/04 09:51:25;;;;;;;11.70;11.30;;;12.20;99.90;;;;;;5113312;27;20224;-63
2024/01/04 09:53:54;;;;;;;11.50;11.10;;;12.30;99.90;;;;;;5107242;28;20222;-63
2024/01/04 09:56:22;;;;;;;11.57;11.17;;;12.30;99.90;;;;;;5120053;27;20602;-63
2024/01/04 09:58:49;;;;;;;11.60;11.20;;;12.20;99.90;;;;;;5112646;27;20205;-63
2024/01/04 10:01:21;;;;;;;11.63;11.23;;;12.00;99.90;;;;;;5124017;27;20656;-63
2024/01/04 10:03:48;;;;;;;12.30;11.90;;;11.90;99.90;;;;;;5120022;27;20228;-64
2024/01/04 10:06:22;;;;;;;12.00;11.60;;;11.80;99.90;;;;;;5125078;27;20197;-63
2024/01/04 10:08:56;;;;;;;12.10;11.70;;;11.70;99.90;;;;;;5119688;27;20255;-63
2024/01/04 10:11:28;;;;;;;12.70;12.20;;;11.60;99.90;;;;;;5124646;27;20227;-64
2024/01/04 10:13:55;;;;;;;12.90;12.40;;;11.60;99.90;;;;;;5120867;27;20245;-63
2024/01/04 10:16:23;;;;;;;12.93;12.43;;;11.50;99.90;;;;;;5118261;27;20204;-63
2024/01/04 10:18:52;;;;;;;13.10;12.50;;;11.50;99.90;;;;;;5118318;28;20236;-64
2024/01/04 10:21:18;;;;;;;12.83;12.40;;;11.40;99.90;;;;;;5120832;27;20383;-63
2024/01/04 10:23:45;;;;;;;13.10;12.60;;;11.40;99.90;;;;;;5123263;27;20286;-65
2024/01/04 10:26:17;;;;;;;12.73;12.33;;;11.30;99.90;;;;;;5123572;27;20576;-64
2024/01/04 10:28:44;;;;;;;13.27;12.77;;;11.20;99.90;;;;;;5124437;27;20206;-64
2024/01/04 10:31:11;;;;;;;13.37;12.87;;;11.00;99.90;;;;;;5125051;27;20224;-63
2024/01/04 10:33:38;;;;;;;14.23;13.73;;;10.90;99.90;;;;;;5120736;27;20233;-62
2024/01/04 10:36:09;;;;;;;13.00;12.50;;;10.80;99.90;;;;;;5123598;28;20252;-65
2024/01/04 10:38:37;;;;;;;12.23;11.83;;;10.70;99.90;;;;;;5121232;28;20215;-63
2024/01/04 10:41:05;;;;;;;12.80;12.33;;;10.70;99.90;;;;;;5128099;28;20210;-63
2024/01/04 10:43:34;;;;;;;13.32;12.82;;;10.80;99.90;;;;;;5122244;28;20244;-64
2024/01/04 10:46:07;;;;;;;13.67;13.17;;;10.80;99.90;;;;;;5129888;28;20269;-63
2024/01/04 10:48:35;;;;;;;12.43;11.93;;;10.80;99.90;;;;;;5135427;28;20205;-65
2024/01/04 10:51:04;;;;;;;12.63;12.23;;;10.90;99.90;;;;;;5135500;28;20212;-64
2024/01/04 10:53:35;;;;;;;13.03;12.57;;;11.00;99.90;;;;;;5136156;28;20209;-63
2024/01/04 10:56:04;;;;;;;13.65;13.15;;;11.00;99.90;;;;;;5136384;28;20198;-63
2024/01/04 10:58:33;;;;;;;13.80;13.30;;;11.00;99.90;;;;;;5120342;28;20202;-64
2024/01/04 11:01:00;;;;;;;14.10;13.60;;;11.00;99.90;;;;;;5126778;28;20309;-64
2024/01/04 11:03:31;;;;;;;13.73;13.23;;;11.00;99.90;;;;;;5120718;27;20198;-64
2024/01/04 11:05:59;;;;;;;14.80;14.30;;;11.10;99.90;;;;;;5125196;28;20202;-64
2024/01/04 11:08:26;;;;;;;13.90;13.40;;;11.10;99.90;;;;;;5123880;27;20251;-65
2024/01/04 11:10:54;;;;;;;14.93;14.37;;;11.00;99.90;;;;;;5126840;27;20205;-64
2024/01/04 11:13:21;;;;;;;14.73;14.13;;;11.00;99.90;;;;;;5125043;27;20222;-64
2024/01/04 11:15:51;;;;;;;14.03;13.53;;;11.00;99.90;;;;;;5118024;27;20202;-63
2024/01/04 11:18:33;;;;;;;13.98;13.48;;;11.00;99.90;;;;;;5128964;27;20209;-65
2024/01/04 11:21:14;;;;;;;13.80;13.30;;;11.00;99.90;;;;;;5124737;27;20210;-63
2024/01/04 11:24:00;;;;;;;13.73;13.23;;;11.00;99.90;;;;;;5126815;27;20185;-64
2024/01/04 11:26:28;;;;;;;13.10;12.63;;;11.00;99.90;;;;;;5117807;27;20221;-64
2024/01/04 11:28:56;;;;;;;12.80;12.40;;;11.10;99.90;;;;;;5127622;27;20198;-65
2024/01/04 11:31:26;;;;;;;13.73;13.17;;;11.10;99.90;;;;;;5125150;27;20270;-66
2024/01/04 11:33:54;;;;;;;13.57;13.07;;;11.00;99.90;;;;;;5123337;27;20214;-64
2024/01/04 11:36:21;;;;;;;14.30;13.80;;;11.00;99.90;;;;;;5128797;27;20220;-64
2024/01/04 11:38:49;;;;;;;14.40;13.90;;;11.10;99.90;;;;;;5125354;27;20213;-65
2024/01/04 11:41:16;;;;;;;15.10;14.50;;;11.10;99.90;;;;;;5124827;27;20275;-65
2024/01/04 11:43:44;;;;;;;13.77;13.27;;;11.10;99.90;;;;;;5127578;27;20598;-64
2024/01/04 11:46:23;;;;;;;13.47;12.97;;;10.90;99.90;;;;;;5115156;27;20205;-65
2024/01/04 11:48:55;;;;;;;13.23;12.73;;;10.90;99.90;;;;;;5125333;27;20205;-64
2024/01/04 11:51:35;;;;;;;13.83;13.33;;;10.90;99.90;;;;;;5126896;27;20256;-64
2024/01/04 11:54:02;;;;;;;12.40;11.90;;;10.90;99.90;;;;;;5126004;27;20229;-64
2024/01/04 11:56:29;;;;;;;12.20;11.80;;;10.80;99.90;;;;;;5125610;27;20206;-64
2024/01/04 11:59:07;;;;;;;12.33;11.93;;;10.80;99.90;;;;;;5120771;27;20197;-64
2024/01/04 12:01:36;;;;;;;13.83;13.33;;;10.80;99.90;;;;;;5123420;27;20270;-64
2024/01/04 12:04:09;;;;;;;13.20;12.70;;;10.90;99.90;;;;;;5123621;27;20664;-64
2024/01/04 12:06:38;;;;;;;13.10;12.60;;;11.00;99.90;;;;;;5127626;27;20233;-65
2024/01/04 12:09:06;;;;;;;13.97;13.47;;;11.10;99.90;;;;;;5125214;27;20269;-64
2024/01/04 12:11:32;;;;;;;13.70;13.20;;;11.10;99.90;;;;;;5128647;27;20796;-63
2024/01/04 12:14:01;;;;;;;13.23;12.73;;;11.30;99.90;;;;;;5127552;27;20222;-65
2024/01/04 12:16:28;;;;;;;13.83;13.33;;;11.30;99.90;;;;;;5126184;27;20221;-64
2024/01/04 12:18:55;;;;;;;13.17;12.67;;;11.40;99.90;;;;;;5127565;27;20210;-64
2024/01/04 12:21:25;;;;;;;13.37;12.87;;;11.40;99.90;;;;;;5125892;27;20256;-64
2024/01/04 12:23:52;;;;;;;13.50;12.90;;;11.40;99.90;;;;;;5122131;27;20199;-66
2024/01/04 12:26:23;;;;;;;13.83;13.33;;;11.30;99.90;;;;;;5127948;27;20197;-64
2024/01/04 12:28:50;;;;;;;14.73;14.23;;;11.30;99.90;;;;;;5134582;27;20284;-64
2024/01/04 12:31:17;;;;;;;15.03;14.47;;;11.40;99.90;;;;;;5117994;27;20229;-63